sensor_id;sensor_type;location;lat;lon;timestamp;pressure;altitude;pressure_sealevel;temperature;humidity
47522;BME280;32291;52.010;4.446;2022-09-12T00:00:21;78236.16;;;-144.67;100.00
47522;BME280;32291;52.010;4.446;2022-09-12T00:01:25;78236.16;;;-144.67;100.00
47522;BME280;32291;52.010;4.446;2022-09-12T00:02:29;78238.28;;;-144.67;100.00
47522;BME280;32291;52.010;4.446;2022-09-12T00:03:32;78238.28;;;-144.67;100.00
47522;BME280;32291;52.010;4.446;2022-09-12T00:04:35;78240.44;;;-144.67;100.00
47522;BME280;32291;52.010;4.446;2022-09-12T00:05:45;78242.56;;;-144.67;100.00
47522;BME280;32291;52.010;4.446;2022-09-12T00:06:48;78240.44;;;-144.67;100.00
47522;BME280;32291;52.010;4.446;2022-09-12T00:07:51;78240.44;;;-144.67;100.00
47522;BME280;32291;52.010;4.446;2022-09-12T00:08:56;78236.16;;;-144.67;100.00
47522;BME280;32291;52.010;4.446;2022-09-12T00:10:03;78240.44;;;-144.67;100.00
47522;BME280;32291;52.010;4.446;2022-09-12T00:11:10;78240.44;;;-144.67;100.00
47522;BME280;32291;52.010;4.446;2022-09-12T00:12:15;78238.28;;;-144.67;100.00
47522;BME280;32291;52.010;4.446;2022-09-12T00:13:18;78238.28;;;-144.67;100.00
47522;BME280;32291;52.010;4.446;2022-09-12T00:14:21;78244.72;;;-144.67;100.00
47522;BME280;32291;52.010;4.446;2022-09-12T00:15:24;78238.28;;;-144.67;100.00
47522;BME280;32291;52.010;4.446;2022-09-12T00:16:30;78238.28;;;-144.67;100.00
47522;BME280;32291;52.010;4.446;2022-09-12T00:17:39;78240.44;;;-144.67;100.00
47522;BME280;32291;52.010;4.446;2022-09-12T00:18:46;78236.16;;;-144.67;100.00
47522;BME280;32291;52.010;4.446;2022-09-12T00:19:52;78242.56;;;-144.67;100.00
47522;BME280;32291;52.010;4.446;2022-09-12T00:20:56;78242.56;;;-144.67;100.00
47522;BME280;32291;52.010;4.446;2022-09-12T00:22:05;78246.84;;;-144.67;100.00
47522;BME280;32291;52.010;4.446;2022-09-12T00:23:08;78249.00;;;-144.67;100.00
47522;BME280;32291;52.010;4.446;2022-09-12T00:24:14;78249.00;;;-144.67;100.00
47522;BME280;32291;52.010;4.446;2022-09-12T00:25:16;78249.00;;;-144.67;100.00
47522;BME280;32291;52.010;4.446;2022-09-12T00:26:21;78251.13;;;-144.67;100.00
47522;BME280;32291;52.010;4.446;2022-09-12T00:27:27;78251.13;;;-144.67;100.00
47522;BME280;32291;52.010;4.446;2022-09-12T00:28:33;78253.28;;;-144.67;100.00
47522;BME280;32291;52.010;4.446;2022-09-12T00:29:37;78251.13;;;-144.67;100.00
47522;BME280;32291;52.010;4.446;2022-09-12T00:30:44;78255.41;;;-144.67;100.00
47522;BME280;32291;52.010;4.446;2022-09-12T00:31:48;78257.56;;;-144.67;100.00
47522;BME280;32291;52.010;4.446;2022-09-12T00:32:51;78257.56;;;-144.67;100.00
47522;BME280;32291;52.010;4.446;2022-09-12T00:34:00;78261.84;;;-144.67;100.00
47522;BME280;32291;52.010;4.446;2022-09-12T00:35:03;78261.84;;;-144.67;100.00
47522;BME280;32291;52.010;4.446;2022-09-12T00:36:14;78257.56;;;-144.67;100.00
47522;BME280;32291;52.010;4.446;2022-09-12T00:37:18;78257.56;;;-144.67;100.00
47522;BME280;32291;52.010;4.446;2022-09-12T00:38:21;78255.41;;;-144.67;100.00
47522;BME280;32291;52.010;4.446;2022-09-12T00:39:24;78255.41;;;-144.67;100.00
47522;BME280;32291;52.010;4.446;2022-09-12T00:40:26;78253.28;;;-144.67;100.00
47522;BME280;32291;52.010;4.446;2022-09-12T00:41:38;78249.00;;;-144.67;100.00
47522;BME280;32291;52.010;4.446;2022-09-12T00:42:42;78249.00;;;-144.67;100.00
47522;BME280;32291;52.010;4.446;2022-09-12T00:43:57;78257.56;;;-144.67;100.00
47522;BME280;32291;52.010;4.446;2022-09-12T00:45:22;78253.28;;;-144.67;100.00
47522;BME280;32291;52.010;4.446;2022-09-12T00:46:49;78251.13;;;-144.67;100.00
47522;BME280;32291;52.010;4.446;2022-09-12T00:48:26;78253.28;;;-144.67;100.00
47522;BME280;32291;52.010;4.446;2022-09-12T00:51:31;78249.00;;;-144.67;100.00
47522;BME280;32291;52.010;4.446;2022-09-12T00:52:46;78253.28;;;-144.67;100.00
47522;BME280;32291;52.010;4.446;2022-09-12T00:53:54;78249.00;;;-144.67;100.00
47522;BME280;32291;52.010;4.446;2022-09-12T00:56:21;78255.41;;;-144.67;100.00
47522;BME280;32291;52.010;4.446;2022-09-12T00:57:33;78253.28;;;-144.67;100.00
47522;BME280;32291;52.010;4.446;2022-09-12T00:58:47;78251.13;;;-144.67;100.00
47522;BME280;32291;52.010;4.446;2022-09-12T01:00:16;78255.41;;;-144.67;100.00
47522;BME280;32291;52.010;4.446;2022-09-12T01:01:22;78249.00;;;-144.67;100.00
47522;BME280;32291;52.010;4.446;2022-09-12T01:02:27;78246.84;;;-144.67;100.00
47522;BME280;32291;52.010;4.446;2022-09-12T01:03:30;78251.13;;;-144.67;100.00
47522;BME280;32291;52.010;4.446;2022-09-12T01:04:36;78251.13;;;-144.67;100.00
47522;BME280;32291;52.010;4.446;2022-09-12T01:07:07;78244.72;;;-144.67;100.00
47522;BME280;32291;52.010;4.446;2022-09-12T01:08:16;78244.72;;;-144.67;100.00
47522;BME280;32291;52.010;4.446;2022-09-12T01:09:22;78244.72;;;-144.67;100.00
47522;BME280;32291;52.010;4.446;2022-09-12T01:10:25;78240.44;;;-144.67;100.00
47522;BME280;32291;52.010;4.446;2022-09-12T01:11:30;78238.28;;;-144.67;100.00
47522;BME280;32291;52.010;4.446;2022-09-12T01:12:42;78244.72;;;-144.67;100.00
47522;BME280;32291;52.010;4.446;2022-09-12T01:13:47;78238.28;;;-144.67;100.00
47522;BME280;32291;52.010;4.446;2022-09-12T01:14:51;78242.56;;;-144.67;100.00
47522;BME280;32291;52.010;4.446;2022-09-12T01:15:54;78240.44;;;-144.67;100.00
47522;BME280;32291;52.010;4.446;2022-09-12T01:16:57;78240.44;;;-144.67;100.00
47522;BME280;32291;52.010;4.446;2022-09-12T01:20:13;78240.44;;;-144.67;100.00
47522;BME280;32291;52.010;4.446;2022-09-12T01:29:30;78244.72;;;-144.67;100.00
47522;BME280;32291;52.010;4.446;2022-09-12T01:31:12;78251.13;;;-144.67;100.00
47522;BME280;32291;52.010;4.446;2022-09-12T01:33:12;78249.00;;;-144.67;100.00
47522;BME280;32291;52.010;4.446;2022-09-12T01:37:50;78253.28;;;-144.67;100.00
47522;BME280;32291;52.010;4.446;2022-09-12T01:39:19;78253.28;;;-144.67;100.00
47522;BME280;32291;52.010;4.446;2022-09-12T01:40:44;78251.13;;;-144.67;100.00
47522;BME280;32291;52.010;4.446;2022-09-12T01:42:14;78253.28;;;-144.67;100.00
47522;BME280;32291;52.010;4.446;2022-09-12T01:49:22;78249.00;;;-144.67;100.00
47522;BME280;32291;52.010;4.446;2022-09-12T01:50:47;78249.00;;;-144.67;100.00
47522;BME280;32291;52.010;4.446;2022-09-12T01:54:40;78249.00;;;-144.67;100.00
47522;BME280;32291;52.010;4.446;2022-09-12T01:55:57;78244.72;;;-144.67;100.00
47522;BME280;32291;52.010;4.446;2022-09-12T01:57:22;78244.72;;;-144.67;100.00
47522;BME280;32291;52.010;4.446;2022-09-12T01:58:44;78244.72;;;-144.67;100.00
47522;BME280;32291;52.010;4.446;2022-09-12T02:00:04;78249.00;;;-144.67;100.00
47522;BME280;32291;52.010;4.446;2022-09-12T02:01:25;78249.00;;;-144.67;100.00
47522;BME280;32291;52.010;4.446;2022-09-12T02:02:41;78242.56;;;-144.67;100.00
47522;BME280;32291;52.010;4.446;2022-09-12T02:04:20;78244.72;;;-144.67;100.00
47522;BME280;32291;52.010;4.446;2022-09-12T02:05:58;78246.84;;;-144.67;100.00
47522;BME280;32291;52.010;4.446;2022-09-12T02:07:19;78244.72;;;-144.67;100.00
47522;BME280;32291;52.010;4.446;2022-09-12T02:08:56;78249.00;;;-144.67;100.00
47522;BME280;32291;52.010;4.446;2022-09-12T02:10:11;78242.56;;;-144.67;100.00
47522;BME280;32291;52.010;4.446;2022-09-12T02:11:20;78244.72;;;-144.67;100.00
47522;BME280;32291;52.010;4.446;2022-09-12T02:12:33;78238.28;;;-144.67;100.00
47522;BME280;32291;52.010;4.446;2022-09-12T02:13:56;78249.00;;;-144.67;100.00
47522;BME280;32291;52.010;4.446;2022-09-12T02:15:08;78238.28;;;-144.67;100.00
47522;BME280;32291;52.010;4.446;2022-09-12T02:16:46;78240.44;;;-144.67;100.00
47522;BME280;32291;52.010;4.446;2022-09-12T02:17:57;78238.28;;;-144.67;100.00
47522;BME280;32291;52.010;4.446;2022-09-12T02:19:16;78238.28;;;-144.67;100.00
47522;BME280;32291;52.010;4.446;2022-09-12T02:20:35;78238.28;;;-144.67;100.00
47522;BME280;32291;52.010;4.446;2022-09-12T02:21:54;78240.44;;;-144.67;100.00
47522;BME280;32291;52.010;4.446;2022-09-12T02:23:06;78236.16;;;-144.67;100.00
47522;BME280;32291;52.010;4.446;2022-09-12T02:24:14;78231.88;;;-144.67;100.00
47522;BME280;32291;52.010;4.446;2022-09-12T02:25:21;78227.59;;;-144.67;100.00
47522;BME280;32291;52.010;4.446;2022-09-12T02:26:49;78227.59;;;-144.67;100.00
47522;BME280;32291;52.010;4.446;2022-09-12T02:28:09;78219.03;;;-144.67;100.00
47522;BME280;32291;52.010;4.446;2022-09-12T02:29:35;78216.88;;;-144.67;100.00
47522;BME280;32291;52.010;4.446;2022-09-12T02:31:03;78212.59;;;-144.67;100.00
47522;BME280;32291;52.010;4.446;2022-09-12T02:33:52;78210.47;;;-144.67;100.00
47522;BME280;32291;52.010;4.446;2022-09-12T02:37:20;78204.03;;;-144.67;100.00
47522;BME280;32291;52.010;4.446;2022-09-12T02:38:47;78197.59;;;-144.67;100.00
47522;BME280;32291;52.010;4.446;2022-09-12T02:40:00;78197.59;;;-144.67;100.00
47522;BME280;32291;52.010;4.446;2022-09-12T02:41:03;78195.47;;;-144.67;100.00
47522;BME280;32291;52.010;4.446;2022-09-12T02:42:10;78199.75;;;-144.67;100.00
47522;BME280;32291;52.010;4.446;2022-09-12T02:43:13;78193.31;;;-144.67;100.00
47522;BME280;32291;52.010;4.446;2022-09-12T02:44:18;78195.47;;;-144.67;100.00
47522;BME280;32291;52.010;4.446;2022-09-12T02:45:21;78193.31;;;-144.67;100.00
47522;BME280;32291;52.010;4.446;2022-09-12T02:46:34;78199.75;;;-144.67;100.00
47522;BME280;32291;52.010;4.446;2022-09-12T02:48:18;78197.59;;;-144.67;100.00
47522;BME280;32291;52.010;4.446;2022-09-12T02:49:26;78197.59;;;-144.67;100.00
47522;BME280;32291;52.010;4.446;2022-09-12T02:50:29;78195.47;;;-144.67;100.00
47522;BME280;32291;52.010;4.446;2022-09-12T02:51:32;78191.19;;;-144.67;100.00
47522;BME280;32291;52.010;4.446;2022-09-12T02:52:35;78191.19;;;-144.67;100.00
47522;BME280;32291;52.010;4.446;2022-09-12T02:53:40;78195.47;;;-144.67;100.00
47522;BME280;32291;52.010;4.446;2022-09-12T02:54:44;78195.47;;;-144.67;100.00
47522;BME280;32291;52.010;4.446;2022-09-12T02:55:48;78193.31;;;-144.67;100.00
47522;BME280;32291;52.010;4.446;2022-09-12T02:56:52;78186.91;;;-144.67;100.00
47522;BME280;32291;52.010;4.446;2022-09-12T02:57:55;78184.75;;;-144.67;100.00
47522;BME280;32291;52.010;4.446;2022-09-12T02:59:05;78176.19;;;-144.67;100.00
47522;BME280;32291;52.010;4.446;2022-09-12T03:00:24;78182.63;;;-144.67;100.00
47522;BME280;32291;52.010;4.446;2022-09-12T03:03:43;78163.34;;;-144.67;100.00
47522;BME280;32291;52.010;4.446;2022-09-12T03:05:23;78159.06;;;-144.67;100.00
47522;BME280;32291;52.010;4.446;2022-09-12T03:08:59;78163.34;;;-144.67;100.00
47522;BME280;32291;52.010;4.446;2022-09-12T03:10:36;78154.78;;;-144.67;100.00
47522;BME280;32291;52.010;4.446;2022-09-12T03:12:25;78152.66;;;-144.67;100.00
47522;BME280;32291;52.010;4.446;2022-09-12T03:14:31;78154.78;;;-144.67;100.00
47522;BME280;32291;52.010;4.446;2022-09-12T03:16:01;78152.66;;;-144.67;100.00
47522;BME280;32291;52.010;4.446;2022-09-12T03:18:03;78146.22;;;-144.67;100.00
47522;BME280;32291;52.010;4.446;2022-09-12T03:19:45;78146.22;;;-144.67;100.00
47522;BME280;32291;52.010;4.446;2022-09-12T03:21:23;78146.22;;;-144.67;100.00
47522;BME280;32291;52.010;4.446;2022-09-12T03:23:09;78139.81;;;-144.67;100.00
47522;BME280;32291;52.010;4.446;2022-09-12T03:24:39;78141.94;;;-144.67;100.00
47522;BME280;32291;52.010;4.446;2022-09-12T03:26:30;78137.66;;;-144.67;100.00
47522;BME280;32291;52.010;4.446;2022-09-12T03:28:09;78133.38;;;-144.67;100.00
47522;BME280;32291;52.010;4.446;2022-09-12T03:29:20;78137.66;;;-144.67;100.00
47522;BME280;32291;52.010;4.446;2022-09-12T03:30:29;78126.97;;;-144.67;100.00
47522;BME280;32291;52.010;4.446;2022-09-12T03:31:33;78129.09;;;-144.67;100.00
47522;BME280;32291;52.010;4.446;2022-09-12T03:32:47;78124.81;;;-144.67;100.00
47522;BME280;32291;52.010;4.446;2022-09-12T03:33:52;78129.09;;;-144.67;100.00
47522;BME280;32291;52.010;4.446;2022-09-12T03:34:56;78129.09;;;-144.67;100.00
47522;BME280;32291;52.010;4.446;2022-09-12T03:36:00;78129.09;;;-144.67;100.00
47522;BME280;32291;52.010;4.446;2022-09-12T03:37:03;78129.09;;;-144.67;100.00
47522;BME280;32291;52.010;4.446;2022-09-12T03:38:06;78129.09;;;-144.67;100.00
47522;BME280;32291;52.010;4.446;2022-09-12T03:39:16;78135.53;;;-144.67;100.00
47522;BME280;32291;52.010;4.446;2022-09-12T03:40:20;78129.09;;;-144.67;100.00
47522;BME280;32291;52.010;4.446;2022-09-12T03:41:23;78131.25;;;-144.67;100.00
47522;BME280;32291;52.010;4.446;2022-09-12T03:42:26;78137.66;;;-144.67;100.00
47522;BME280;32291;52.010;4.446;2022-09-12T03:43:29;78133.38;;;-144.67;100.00
47522;BME280;32291;52.010;4.446;2022-09-12T03:44:31;78131.25;;;-144.67;100.00
47522;BME280;32291;52.010;4.446;2022-09-12T03:45:35;78129.09;;;-144.67;100.00
47522;BME280;32291;52.010;4.446;2022-09-12T03:46:44;78139.81;;;-144.67;100.00
47522;BME280;32291;52.010;4.446;2022-09-12T03:47:47;78129.09;;;-144.67;100.00
47522;BME280;32291;52.010;4.446;2022-09-12T03:48:51;78126.97;;;-144.67;100.00
47522;BME280;32291;52.010;4.446;2022-09-12T03:49:54;78122.69;;;-144.67;100.00
47522;BME280;32291;52.010;4.446;2022-09-12T03:51:03;78124.81;;;-144.67;100.00
47522;BME280;32291;52.010;4.446;2022-09-12T03:52:12;78124.81;;;-144.67;100.00
47522;BME280;32291;52.010;4.446;2022-09-12T03:53:15;78129.09;;;-144.67;100.00
47522;BME280;32291;52.010;4.446;2022-09-12T03:54:18;78126.97;;;-144.67;100.00
47522;BME280;32291;52.010;4.446;2022-09-12T03:55:20;78133.38;;;-144.67;100.00
47522;BME280;32291;52.010;4.446;2022-09-12T03:56:24;78126.97;;;-144.67;100.00
47522;BME280;32291;52.010;4.446;2022-09-12T03:57:26;78129.09;;;-144.67;100.00
47522;BME280;32291;52.010;4.446;2022-09-12T03:58:33;78129.09;;;-144.67;100.00
47522;BME280;32291;52.010;4.446;2022-09-12T03:59:37;78126.97;;;-144.67;100.00
47522;BME280;32291;52.010;4.446;2022-09-12T04:00:40;78124.81;;;-144.67;100.00
47522;BME280;32291;52.010;4.446;2022-09-12T04:01:43;78124.81;;;-144.67;100.00
47522;BME280;32291;52.010;4.446;2022-09-12T04:02:47;78120.53;;;-144.67;100.00
47522;BME280;32291;52.010;4.446;2022-09-12T04:03:55;78124.81;;;-144.67;100.00
47522;BME280;32291;52.010;4.446;2022-09-12T04:05:00;78120.53;;;-144.67;100.00
47522;BME280;32291;52.010;4.446;2022-09-12T04:06:04;78120.53;;;-144.67;100.00
47522;BME280;32291;52.010;4.446;2022-09-12T04:07:08;78131.25;;;-144.67;100.00
47522;BME280;32291;52.010;4.446;2022-09-12T04:08:12;78120.53;;;-144.67;100.00
47522;BME280;32291;52.010;4.446;2022-09-12T04:09:15;78120.53;;;-144.67;100.00
47522;BME280;32291;52.010;4.446;2022-09-12T04:10:18;78120.53;;;-144.67;100.00
47522;BME280;32291;52.010;4.446;2022-09-12T04:11:21;78129.09;;;-144.67;100.00
47522;BME280;32291;52.010;4.446;2022-09-12T04:12:28;78126.97;;;-144.67;100.00
47522;BME280;32291;52.010;4.446;2022-09-12T04:13:31;78131.25;;;-144.67;100.00
47522;BME280;32291;52.010;4.446;2022-09-12T04:14:33;78129.09;;;-144.67;100.00
47522;BME280;32291;52.010;4.446;2022-09-12T04:15:36;78133.38;;;-144.67;100.00
47522;BME280;32291;52.010;4.446;2022-09-12T04:16:47;78129.09;;;-144.67;100.00
47522;BME280;32291;52.010;4.446;2022-09-12T04:17:50;78126.97;;;-144.67;100.00
47522;BME280;32291;52.010;4.446;2022-09-12T04:18:53;78135.53;;;-144.67;100.00
47522;BME280;32291;52.010;4.446;2022-09-12T04:19:55;78133.38;;;-144.67;100.00
47522;BME280;32291;52.010;4.446;2022-09-12T04:21:18;78133.38;;;-144.67;100.00
47522;BME280;32291;52.010;4.446;2022-09-12T04:22:23;78129.09;;;-144.67;100.00
47522;BME280;32291;52.010;4.446;2022-09-12T04:23:33;78129.09;;;-144.67;100.00
47522;BME280;32291;52.010;4.446;2022-09-12T04:24:36;78129.09;;;-144.67;100.00
47522;BME280;32291;52.010;4.446;2022-09-12T04:25:43;78129.09;;;-144.67;100.00
47522;BME280;32291;52.010;4.446;2022-09-12T04:26:46;78126.97;;;-144.67;100.00
47522;BME280;32291;52.010;4.446;2022-09-12T04:27:49;78133.38;;;-144.67;100.00
47522;BME280;32291;52.010;4.446;2022-09-12T04:28:54;78133.38;;;-144.67;100.00
47522;BME280;32291;52.010;4.446;2022-09-12T04:30:11;78133.38;;;-144.67;100.00
47522;BME280;32291;52.010;4.446;2022-09-12T04:31:17;78137.66;;;-144.67;100.00
47522;BME280;32291;52.010;4.446;2022-09-12T04:32:22;78135.53;;;-144.67;100.00
47522;BME280;32291;52.010;4.446;2022-09-12T04:33:25;78144.09;;;-144.67;100.00
47522;BME280;32291;52.010;4.446;2022-09-12T04:34:31;78137.66;;;-144.67;100.00
47522;BME280;32291;52.010;4.446;2022-09-12T04:35:36;78141.94;;;-144.67;100.00
47522;BME280;32291;52.010;4.446;2022-09-12T04:36:47;78150.50;;;-144.67;100.00
47522;BME280;32291;52.010;4.446;2022-09-12T04:37:49;78150.50;;;-144.67;100.00
47522;BME280;32291;52.010;4.446;2022-09-12T04:38:54;78152.66;;;-144.67;100.00
47522;BME280;32291;52.010;4.446;2022-09-12T04:40:00;78150.50;;;-144.67;100.00
47522;BME280;32291;52.010;4.446;2022-09-12T04:41:18;78154.78;;;-144.67;100.00
47522;BME280;32291;52.010;4.446;2022-09-12T04:42:25;78154.78;;;-144.67;100.00
47522;BME280;32291;52.010;4.446;2022-09-12T04:43:30;78154.78;;;-144.67;100.00
47522;BME280;32291;52.010;4.446;2022-09-12T04:44:33;78156.94;;;-144.67;100.00
47522;BME280;32291;52.010;4.446;2022-09-12T04:45:40;78159.06;;;-144.67;100.00
47522;BME280;32291;52.010;4.446;2022-09-12T04:46:46;78163.34;;;-144.67;100.00
47522;BME280;32291;52.010;4.446;2022-09-12T04:47:48;78169.78;;;-144.67;100.00
47522;BME280;32291;52.010;4.446;2022-09-12T04:48:51;78169.78;;;-144.67;100.00
47522;BME280;32291;52.010;4.446;2022-09-12T04:49:55;78176.19;;;-144.67;100.00
47522;BME280;32291;52.010;4.446;2022-09-12T04:51:23;78178.34;;;-144.67;100.00
47522;BME280;32291;52.010;4.446;2022-09-12T04:52:31;78176.19;;;-144.67;100.00
47522;BME280;32291;52.010;4.446;2022-09-12T04:53:34;78180.47;;;-144.67;100.00
47522;BME280;32291;52.010;4.446;2022-09-12T04:54:45;78184.75;;;-144.67;100.00
47522;BME280;32291;52.010;4.446;2022-09-12T04:55:49;78184.75;;;-144.67;100.00
47522;BME280;32291;52.010;4.446;2022-09-12T04:56:55;78176.19;;;-144.67;100.00
47522;BME280;32291;52.010;4.446;2022-09-12T04:58:00;78184.75;;;-144.67;100.00
47522;BME280;32291;52.010;4.446;2022-09-12T04:59:04;78182.63;;;-144.67;100.00
47522;BME280;32291;52.010;4.446;2022-09-12T05:00:11;78184.75;;;-144.67;100.00
47522;BME280;32291;52.010;4.446;2022-09-12T05:01:21;78189.03;;;-144.67;100.00
47522;BME280;32291;52.010;4.446;2022-09-12T05:02:24;78191.19;;;-144.67;100.00
47522;BME280;32291;52.010;4.446;2022-09-12T05:03:28;78191.19;;;-144.67;100.00
47522;BME280;32291;52.010;4.446;2022-09-12T05:04:31;78191.19;;;-144.67;100.00
47522;BME280;32291;52.010;4.446;2022-09-12T05:05:35;78197.59;;;-144.67;100.00
47522;BME280;32291;52.010;4.446;2022-09-12T05:06:40;78193.31;;;-144.67;100.00
47522;BME280;32291;52.010;4.446;2022-09-12T05:07:44;78189.03;;;-144.67;100.00
47522;BME280;32291;52.010;4.446;2022-09-12T05:08:48;78197.59;;;-144.67;100.00
47522;BME280;32291;52.010;4.446;2022-09-12T05:09:56;78197.59;;;-144.67;100.00
47522;BME280;32291;52.010;4.446;2022-09-12T05:12:36;78206.19;;;-144.67;100.00
47522;BME280;32291;52.010;4.446;2022-09-12T05:13:39;78206.19;;;-144.67;100.00
47522;BME280;32291;52.010;4.446;2022-09-12T05:14:42;78210.47;;;-144.67;100.00
47522;BME280;32291;52.010;4.446;2022-09-12T05:15:58;78214.75;;;-144.67;100.00
47522;BME280;32291;52.010;4.446;2022-09-12T05:17:04;78221.16;;;-144.67;100.00
47522;BME280;32291;52.010;4.446;2022-09-12T05:18:07;78219.03;;;-144.67;100.00
47522;BME280;32291;52.010;4.446;2022-09-12T05:19:11;78210.47;;;-144.67;100.00
47522;BME280;32291;52.010;4.446;2022-09-12T05:20:14;78214.75;;;-144.67;100.00
47522;BME280;32291;52.010;4.446;2022-09-12T05:21:24;78216.88;;;-144.67;100.00
47522;BME280;32291;52.010;4.446;2022-09-12T05:22:28;78214.75;;;-144.67;100.00
47522;BME280;32291;52.010;4.446;2022-09-12T05:23:31;78210.47;;;-144.67;100.00
47522;BME280;32291;52.010;4.446;2022-09-12T05:24:35;78216.88;;;-144.67;100.00
47522;BME280;32291;52.010;4.446;2022-09-12T05:25:38;78216.88;;;-144.67;100.00
47522;BME280;32291;52.010;4.446;2022-09-12T05:26:42;78210.47;;;-144.67;100.00
47522;BME280;32291;52.010;4.446;2022-09-12T05:27:45;78219.03;;;-144.67;100.00
47522;BME280;32291;52.010;4.446;2022-09-12T05:28:49;78210.47;;;-144.67;100.00
47522;BME280;32291;52.010;4.446;2022-09-12T05:29:52;78210.47;;;-144.67;100.00
47522;BME280;32291;52.010;4.446;2022-09-12T05:31:13;78214.75;;;-144.67;100.00
47522;BME280;32291;52.010;4.446;2022-09-12T05:32:17;78214.75;;;-144.67;100.00
47522;BME280;32291;52.010;4.446;2022-09-12T05:33:21;78212.59;;;-144.67;100.00
47522;BME280;32291;52.010;4.446;2022-09-12T05:34:24;78219.03;;;-144.67;100.00
47522;BME280;32291;52.010;4.446;2022-09-12T05:35:28;78210.47;;;-144.67;100.00
47522;BME280;32291;52.010;4.446;2022-09-12T05:36:32;78210.47;;;-144.67;100.00
47522;BME280;32291;52.010;4.446;2022-09-12T05:37:38;78206.19;;;-144.67;100.00
47522;BME280;32291;52.010;4.446;2022-09-12T05:38:44;78208.31;;;-144.67;100.00
47522;BME280;32291;52.010;4.446;2022-09-12T05:39:47;78206.19;;;-144.67;100.00
47522;BME280;32291;52.010;4.446;2022-09-12T05:40:50;78206.19;;;-144.67;100.00
47522;BME280;32291;52.010;4.446;2022-09-12T05:41:53;78204.03;;;-144.67;100.00
47522;BME280;32291;52.010;4.446;2022-09-12T05:43:00;78206.19;;;-144.67;100.00
47522;BME280;32291;52.010;4.446;2022-09-12T05:44:09;78206.19;;;-144.67;100.00
47522;BME280;32291;52.010;4.446;2022-09-12T05:45:13;78210.47;;;-144.67;100.00
47522;BME280;32291;52.010;4.446;2022-09-12T05:46:20;78208.31;;;-144.67;100.00
47522;BME280;32291;52.010;4.446;2022-09-12T05:47:26;78210.47;;;-144.67;100.00
47522;BME280;32291;52.010;4.446;2022-09-12T05:48:29;78210.47;;;-144.67;100.00
47522;BME280;32291;52.010;4.446;2022-09-12T05:49:34;78208.31;;;-144.67;100.00
47522;BME280;32291;52.010;4.446;2022-09-12T05:50:37;78212.59;;;-144.67;100.00
47522;BME280;32291;52.010;4.446;2022-09-12T05:51:44;78214.75;;;-144.67;100.00
47522;BME280;32291;52.010;4.446;2022-09-12T05:52:46;78214.75;;;-144.67;100.00
47522;BME280;32291;52.010;4.446;2022-09-12T05:53:56;78210.47;;;-144.67;100.00
47522;BME280;32291;52.010;4.446;2022-09-12T05:54:59;78219.03;;;-144.67;100.00
47522;BME280;32291;52.010;4.446;2022-09-12T05:56:17;78219.03;;;-144.67;100.00
47522;BME280;32291;52.010;4.446;2022-09-12T05:57:21;78223.31;;;-144.67;100.00
47522;BME280;32291;52.010;4.446;2022-09-12T05:58:23;78219.03;;;-144.67;100.00
47522;BME280;32291;52.010;4.446;2022-09-12T05:59:27;78214.75;;;-144.67;100.00
47522;BME280;32291;52.010;4.446;2022-09-12T06:00:30;78210.47;;;-144.67;100.00
47522;BME280;32291;52.010;4.446;2022-09-12T06:01:34;78216.88;;;-144.67;100.00
47522;BME280;32291;52.010;4.446;2022-09-12T06:02:37;78206.19;;;-144.67;100.00
47522;BME280;32291;52.010;4.446;2022-09-12T06:03:46;78208.31;;;-144.67;100.00
47522;BME280;32291;52.010;4.446;2022-09-12T06:04:51;78210.47;;;-144.67;100.00
47522;BME280;32291;52.010;4.446;2022-09-12T06:05:54;78210.47;;;-144.67;100.00
47522;BME280;32291;52.010;4.446;2022-09-12T06:07:00;78206.19;;;-144.67;100.00
47522;BME280;32291;52.010;4.446;2022-09-12T06:08:03;78214.75;;;-144.67;100.00
47522;BME280;32291;52.010;4.446;2022-09-12T06:09:07;78206.19;;;-144.67;100.00
47522;BME280;32291;52.010;4.446;2022-09-12T06:10:13;78206.19;;;-144.67;100.00
47522;BME280;32291;52.010;4.446;2022-09-12T06:11:23;78210.47;;;-144.67;100.00
47522;BME280;32291;52.010;4.446;2022-09-12T06:12:29;78199.75;;;-144.67;100.00
47522;BME280;32291;52.010;4.446;2022-09-12T06:13:34;78193.31;;;-144.67;100.00
47522;BME280;32291;52.010;4.446;2022-09-12T06:14:43;78193.31;;;-144.67;100.00
47522;BME280;32291;52.010;4.446;2022-09-12T06:15:46;78197.59;;;-144.67;100.00
47522;BME280;32291;52.010;4.446;2022-09-12T06:16:50;78184.75;;;-144.67;100.00
47522;BME280;32291;52.010;4.446;2022-09-12T06:17:52;78186.91;;;-144.67;100.00
47522;BME280;32291;52.010;4.446;2022-09-12T06:18:58;78184.75;;;-144.67;100.00
47522;BME280;32291;52.010;4.446;2022-09-12T06:20:03;78167.63;;;-144.67;100.00
47522;BME280;32291;52.010;4.446;2022-09-12T06:21:09;78161.22;;;-144.67;100.00
47522;BME280;32291;52.010;4.446;2022-09-12T06:22:14;78154.78;;;-144.67;100.00
47522;BME280;32291;52.010;4.446;2022-09-12T06:23:17;78159.06;;;-144.67;100.00
47522;BME280;32291;52.010;4.446;2022-09-12T06:24:20;78154.78;;;-144.67;100.00
47522;BME280;32291;52.010;4.446;2022-09-12T06:25:23;78146.22;;;-144.67;100.00
47522;BME280;32291;52.010;4.446;2022-09-12T06:26:26;78141.94;;;-144.67;100.00
47522;BME280;32291;52.010;4.446;2022-09-12T06:27:31;78139.81;;;-144.67;100.00
47522;BME280;32291;52.010;4.446;2022-09-12T06:28:40;78133.38;;;-144.67;100.00
47522;BME280;32291;52.010;4.446;2022-09-12T06:29:43;78137.66;;;-144.67;100.00
47522;BME280;32291;52.010;4.446;2022-09-12T06:30:46;78126.97;;;-144.67;100.00
47522;BME280;32291;52.010;4.446;2022-09-12T06:31:49;78120.53;;;-144.67;100.00